Time;durP1;ratioP1;P1;durP2;ratioP2;P2;SDS_P1;SDS_P2;PMS_P1;PMS_P2;Temp;Humidity;BMP_temperature;BMP_pressure;BME280_temperature;BME280_humidity;BME280_pressure;Samples;Min_cycle;Max_cycle;Signal;HPM_P1;HPM_P2
2022/03/01 00:01:53;;;;;;;;;52.00;42.00;;;;;;;;5079997;27;46276;-89
2022/03/01 00:04:19;;;;;;;;;46.25;37.25;;;;;;;;5077919;27;46503;-89
2022/03/01 00:06:44;;;;;;;;;47.50;40.00;;;;;;;;5076306;27;45522;-89
2022/03/01 00:09:09;;;;;;;;;46.00;38.75;;;;;;;;5078280;27;45527;-90
2022/03/01 00:11:35;;;;;;;;;45.25;38.50;;;;;;;;5078604;27;48284;-88
2022/03/01 00:14:00;;;;;;;;;45.00;38.25;;;;;;;;5078179;27;45549;-88
2022/03/01 00:16:26;;;;;;;;;50.00;36.50;;;;;;;;5082317;27;45468;-89
2022/03/01 00:18:51;;;;;;;;;50.25;40.25;;;;;;;;5080371;27;45452;-90
2022/03/01 00:21:16;;;;;;;;;45.25;38.75;;;;;;;;5077345;27;47321;-90
2022/03/01 00:23:41;;;;;;;;;48.75;41.25;;;;;;;;5083468;27;46033;-89
2022/03/01 00:26:07;;;;;;;;;47.50;38.75;;;;;;;;5080677;27;45469;-88
2022/03/01 00:28:32;;;;;;;;;48.50;41.00;;;;;;;;5079710;27;45554;-89
2022/03/01 00:30:57;;;;;;;;;48.75;39.25;;;;;;;;5081647;27;46541;-89
2022/03/01 00:33:22;;;;;;;;;48.25;38.25;;;;;;;;5081686;27;45901;-89
2022/03/01 00:35:48;;;;;;;;;45.25;39.00;;;;;;;;5083978;27;45570;-89
2022/03/01 00:38:13;;;;;;;;;45.75;38.50;;;;;;;;5080010;27;45594;-90
2022/03/01 00:40:38;;;;;;;;;46.00;38.75;;;;;;;;5081097;27;45399;-90
2022/03/01 00:43:04;;;;;;;;;47.00;38.75;;;;;;;;5085402;27;45584;-91
2022/03/01 00:45:29;;;;;;;;;38.25;34.00;;;;;;;;5081035;27;45419;-90
2022/03/01 00:47:54;;;;;;;;;46.00;39.00;;;;;;;;5110937;27;45429;-89
2022/03/01 00:50:19;;;;;;;;;43.25;36.50;;;;;;;;5084900;27;46253;-90
2022/03/01 00:52:45;;;;;;;;;45.25;39.00;;;;;;;;5082150;27;45474;-90
2022/03/01 00:55:10;;;;;;;;;49.50;41.50;;;;;;;;5088209;27;45276;-90
2022/03/01 00:57:35;;;;;;;;;48.50;38.75;;;;;;;;5076437;27;45406;-90
2022/03/01 01:00:00;;;;;;;;;50.75;39.50;;;;;;;;5083332;27;47283;-90
2022/03/01 01:02:26;;;;;;;;;51.25;38.50;;;;;;;;5084093;27;45648;-89
2022/03/01 01:04:51;;;;;;;;;44.75;36.75;;;;;;;;5085990;27;45351;-90
2022/03/01 01:07:16;;;;;;;;;44.00;38.25;;;;;;;;5086406;27;45492;-90
2022/03/01 01:09:42;;;;;;;;;41.50;36.25;;;;;;;;5077380;27;45344;-90
2022/03/01 01:12:08;;;;;;;;;45.75;37.00;;;;;;;;5082086;27;45597;-90
2022/03/01 01:14:33;;;;;;;;;47.50;39.50;;;;;;;;5084385;27;45421;-89
2022/03/01 01:16:59;;;;;;;;;47.25;37.25;;;;;;;;5090487;27;45347;-89
2022/03/01 01:19:24;;;;;;;;;43.50;36.25;;;;;;;;5092639;27;47345;-89
2022/03/01 01:24:33;;;;;;;;;48.50;36.50;;;;;;;;5087913;27;45271;-89
2022/03/01 01:26:58;;;;;;;;;42.00;36.00;;;;;;;;5090724;27;45572;-90
2022/03/01 01:29:23;;;;;;;;;45.50;37.25;;;;;;;;5090304;27;48283;-90
2022/03/01 01:31:49;;;;;;;;;48.50;39.50;;;;;;;;5092344;27;45601;-90
2022/03/01 01:34:14;;;;;;;;;43.25;37.50;;;;;;;;5083345;27;45300;-89
2022/03/01 01:36:39;;;;;;;;;44.00;36.00;;;;;;;;5100664;27;45495;-89
2022/03/01 01:39:05;;;;;;;;;43.00;37.50;;;;;;;;5089279;27;46174;-89
2022/03/01 01:41:30;;;;;;;;;46.75;38.25;;;;;;;;5097166;27;46035;-89
2022/03/01 01:43:56;;;;;;;;;42.00;36.25;;;;;;;;5086251;27;45460;-90
2022/03/01 01:46:21;;;;;;;;;47.00;39.75;;;;;;;;5105818;27;45346;-89
2022/03/01 01:48:46;;;;;;;;;44.50;36.00;;;;;;;;5115897;27;45506;-89
2022/03/01 01:51:11;;;;;;;;;41.50;36.50;;;;;;;;5106894;27;49445;-88
2022/03/01 01:53:37;;;;;;;;;44.25;36.25;;;;;;;;5100957;27;45501;-89
2022/03/01 01:56:02;;;;;;;;;47.00;38.75;;;;;;;;5096562;27;45347;-89
2022/03/01 01:58:27;;;;;;;;;44.25;37.50;;;;;;;;5098488;27;46194;-88
2022/03/01 02:00:53;;;;;;;;;38.75;35.00;;;;;;;;5096796;27;48198;-88
2022/03/01 02:03:18;;;;;;;;;36.75;34.00;;;;;;;;5095189;27;45489;-88
2022/03/01 02:05:43;;;;;;;;;50.00;40.00;;;;;;;;5095640;27;45531;-88
2022/03/01 02:08:08;;;;;;;;;44.25;38.25;;;;;;;;5097386;27;47197;-89
2022/03/01 02:10:34;;;;;;;;;47.50;39.75;;;;;;;;5097588;27;45794;-88
2022/03/01 02:12:59;;;;;;;;;38.25;33.75;;;;;;;;5097885;27;45463;-90
2022/03/01 02:15:25;;;;;;;;;48.75;39.75;;;;;;;;5097081;27;45519;-89
2022/03/01 02:17:50;;;;;;;;;43.75;36.75;;;;;;;;5095630;27;46174;-89
2022/03/01 02:20:15;;;;;;;;;43.00;37.50;;;;;;;;5096534;27;45379;-90
2022/03/01 02:22:40;;;;;;;;;45.25;34.25;;;;;;;;5097601;27;45378;-90
2022/03/01 02:25:06;;;;;;;;;47.50;40.50;;;;;;;;5099145;27;45395;-90
2022/03/01 02:27:32;;;;;;;;;37.25;35.75;;;;;;;;5095308;27;46649;-89
2022/03/01 02:29:57;;;;;;;;;45.00;38.50;;;;;;;;5095025;27;45278;-89
2022/03/01 02:32:22;;;;;;;;;43.25;37.50;;;;;;;;5095456;27;45467;-89
2022/03/01 02:34:48;;;;;;;;;44.50;39.00;;;;;;;;5094828;27;45411;-89
2022/03/01 02:37:14;;;;;;;;;42.00;36.25;;;;;;;;5098013;27;47290;-89
2022/03/01 02:39:39;;;;;;;;;51.00;41.75;;;;;;;;5095170;27;45391;-89
2022/03/01 02:42:04;;;;;;;;;45.50;39.00;;;;;;;;5095166;27;45467;-89
2022/03/01 02:44:29;;;;;;;;;49.75;40.00;;;;;;;;5095077;27;45331;-89
2022/03/01 02:46:55;;;;;;;;;50.75;40.50;;;;;;;;5096620;27;45532;-90
2022/03/01 02:49:20;;;;;;;;;43.00;38.25;;;;;;;;5097752;27;45668;-89
2022/03/01 02:51:45;;;;;;;;;51.50;39.50;;;;;;;;5096386;27;45486;-90
2022/03/01 02:54:10;;;;;;;;;52.00;41.25;;;;;;;;5094682;27;45574;-90
2022/03/01 02:56:35;;;;;;;;;46.00;35.75;;;;;;;;5094164;27;47433;-89
2022/03/01 02:59:01;;;;;;;;;51.25;41.75;;;;;;;;5095454;27;45762;-90
2022/03/01 03:01:26;;;;;;;;;53.75;41.75;;;;;;;;5096473;27;45337;-89
2022/03/01 03:03:52;;;;;;;;;51.00;40.75;;;;;;;;5096913;27;45313;-89
2022/03/01 03:06:17;;;;;;;;;48.75;40.00;;;;;;;;5096269;27;45465;-89
2022/03/01 03:08:42;;;;;;;;;56.00;43.00;;;;;;;;5096237;27;45390;-89
2022/03/01 03:11:08;;;;;;;;;59.50;47.50;;;;;;;;5098492;27;45286;-88
2022/03/01 03:13:33;;;;;;;;;47.50;40.75;;;;;;;;5095924;27;45323;-90
2022/03/01 03:15:58;;;;;;;;;52.75;43.50;;;;;;;;5097526;27;46781;-89
2022/03/01 03:18:23;;;;;;;;;62.25;49.50;;;;;;;;5095568;27;45400;-91
2022/03/01 03:20:48;;;;;;;;;64.25;50.75;;;;;;;;5089929;27;45396;-90
2022/03/01 03:23:14;;;;;;;;;58.25;46.50;;;;;;;;5096389;27;45339;-90
2022/03/01 03:25:39;;;;;;;;;62.00;47.50;;;;;;;;5095641;27;47478;-90
2022/03/01 03:28:04;;;;;;;;;57.50;46.25;;;;;;;;5094788;27;45609;-90
2022/03/01 03:30:30;;;;;;;;;63.50;49.50;;;;;;;;5095992;27;45366;-90
2022/03/01 03:32:55;;;;;;;;;59.00;46.50;;;;;;;;5095355;27;45580;-90
2022/03/01 03:35:20;;;;;;;;;52.75;42.75;;;;;;;;5094355;27;48603;-90
2022/03/01 03:37:46;;;;;;;;;44.50;36.75;;;;;;;;5095585;27;45405;-89
2022/03/01 03:40:11;;;;;;;;;48.25;37.50;;;;;;;;5097746;27;45391;-90
2022/03/01 03:42:37;;;;;;;;;46.25;37.75;;;;;;;;5094188;27;45412;-89
2022/03/01 03:45:03;;;;;;;;;47.50;38.75;;;;;;;;5093971;27;47435;-90
2022/03/01 03:47:28;;;;;;;;;45.25;40.00;;;;;;;;5093725;27;46712;-89
2022/03/01 03:49:53;;;;;;;;;40.00;35.75;;;;;;;;5095787;27;45374;-90
2022/03/01 03:52:19;;;;;;;;;39.00;34.00;;;;;;;;5097499;27;45335;-90
2022/03/01 03:54:44;;;;;;;;;42.25;36.00;;;;;;;;5092107;27;47608;-90
2022/03/01 03:57:10;;;;;;;;;40.25;34.00;;;;;;;;5093617;27;45723;-90
2022/03/01 03:59:36;;;;;;;;;38.50;34.25;;;;;;;;5095492;27;45268;-90
2022/03/01 04:02:02;;;;;;;;;42.50;35.25;;;;;;;;5095319;27;45389;-90
2022/03/01 04:04:27;;;;;;;;;41.25;36.50;;;;;;;;5096240;27;46899;-90
2022/03/01 04:06:52;;;;;;;;;33.50;33.00;;;;;;;;5094611;27;45340;-89
2022/03/01 04:09:18;;;;;;;;;43.75;36.75;;;;;;;;5093867;27;45696;-89
2022/03/01 04:11:43;;;;;;;;;41.00;35.50;;;;;;;;5092103;27;45476;-90
2022/03/01 04:14:08;;;;;;;;;42.50;38.50;;;;;;;;5092037;27;47675;-89
2022/03/01 04:16:33;;;;;;;;;47.00;39.50;;;;;;;;5093770;27;45691;-90
2022/03/01 04:18:58;;;;;;;;;44.50;38.50;;;;;;;;5096480;27;45328;-90
2022/03/01 04:21:24;;;;;;;;;52.00;40.50;;;;;;;;5092751;27;45359;-89
2022/03/01 04:23:49;;;;;;;;;62.75;48.00;;;;;;;;5098289;27;45419;-90
2022/03/01 04:26:14;;;;;;;;;52.00;41.00;;;;;;;;5094873;27;45585;-90
2022/03/01 04:28:39;;;;;;;;;59.25;47.75;;;;;;;;5094705;27;45293;-90
2022/03/01 04:31:05;;;;;;;;;62.50;49.00;;;;;;;;5096469;27;45428;-90
2022/03/01 04:33:30;;;;;;;;;62.00;49.00;;;;;;;;5088432;27;45569;-90
2022/03/01 04:35:59;;;;;;;;;56.75;45.25;;;;;;;;5092618;27;46143;-89
2022/03/01 04:38:25;;;;;;;;;47.25;41.00;;;;;;;;5094587;27;45287;-89
2022/03/01 04:40:50;;;;;;;;;52.75;41.25;;;;;;;;5094699;27;45382;-89
2022/03/01 04:43:15;;;;;;;;;46.00;36.50;;;;;;;;5095190;27;47031;-89
2022/03/01 04:45:41;;;;;;;;;49.50;39.00;;;;;;;;5094019;27;45388;-89
2022/03/01 04:48:06;;;;;;;;;50.75;40.25;;;;;;;;5093139;27;45307;-90
2022/03/01 04:50:31;;;;;;;;;50.00;39.00;;;;;;;;5094325;27;45718;-90
2022/03/01 04:52:57;;;;;;;;;44.75;36.25;;;;;;;;5094133;27;45337;-89
2022/03/01 04:55:22;;;;;;;;;47.50;36.50;;;;;;;;5095078;27;45407;-90
2022/03/01 04:57:47;;;;;;;;;44.00;37.75;;;;;;;;5094853;27;45464;-90
2022/03/01 05:00:13;;;;;;;;;47.00;37.00;;;;;;;;5091234;27;45342;-90
2022/03/01 05:02:39;;;;;;;;;40.50;35.50;;;;;;;;5092602;27;46611;-89
2022/03/01 05:05:10;;;;;;;;;47.75;37.75;;;;;;;;5094354;27;45503;-90
2022/03/01 05:07:35;;;;;;;;;44.25;36.50;;;;;;;;5094731;27;45390;-90
2022/03/01 05:10:00;;;;;;;;;48.50;39.00;;;;;;;;5095604;27;45409;-90
2022/03/01 05:12:25;;;;;;;;;46.75;37.75;;;;;;;;5096634;27;45487;-90
2022/03/01 05:14:51;;;;;;;;;47.75;37.00;;;;;;;;5092419;27;45458;-90
2022/03/01 05:17:16;;;;;;;;;36.75;33.75;;;;;;;;5094397;27;45414;-90
2022/03/01 05:19:41;;;;;;;;;42.25;36.50;;;;;;;;5093018;27;45917;-90
2022/03/01 05:22:06;;;;;;;;;40.25;36.00;;;;;;;;5096059;27;45484;-91
2022/03/01 05:24:32;;;;;;;;;45.75;37.50;;;;;;;;5092282;27;45373;-90
2022/03/01 05:26:57;;;;;;;;;42.00;36.50;;;;;;;;5092958;27;45420;-90
2022/03/01 05:29:22;;;;;;;;;38.00;34.75;;;;;;;;5093464;27;45363;-90
2022/03/01 05:31:48;;;;;;;;;39.75;36.00;;;;;;;;5091101;27;47242;-91
2022/03/01 05:34:13;;;;;;;;;43.25;36.00;;;;;;;;5101517;27;45624;-90
2022/03/01 05:36:38;;;;;;;;;48.75;38.50;;;;;;;;5092521;27;45260;-90
2022/03/01 05:39:03;;;;;;;;;48.75;36.00;;;;;;;;5093782;27;45550;-90
2022/03/01 05:41:28;;;;;;;;;35.00;33.25;;;;;;;;5092230;27;46589;-90
2022/03/01 05:43:54;;;;;;;;;42.00;36.50;;;;;;;;5093543;27;45358;-90
2022/03/01 05:46:19;;;;;;;;;40.75;36.50;;;;;;;;5094706;27;45464;-90
2022/03/01 05:48:44;;;;;;;;;44.50;36.75;;;;;;;;5093611;27;45583;-90
2022/03/01 05:51:09;;;;;;;;;40.00;34.75;;;;;;;;5091733;27;47850;-90
2022/03/01 05:53:34;;;;;;;;;43.00;36.25;;;;;;;;5093489;27;45469;-90
2022/03/01 05:56:00;;;;;;;;;54.25;37.75;;;;;;;;5093822;27;45850;-90
2022/03/01 05:58:25;;;;;;;;;43.50;37.25;;;;;;;;5095162;27;45338;-90
2022/03/01 06:00:50;;;;;;;;;48.75;38.75;;;;;;;;5092796;27;48308;-90
2022/03/01 06:03:15;;;;;;;;;38.75;34.25;;;;;;;;5093541;27;45343;-90
2022/03/01 06:05:41;;;;;;;;;39.00;34.00;;;;;;;;5087826;27;45508;-90
2022/03/01 06:08:06;;;;;;;;;39.75;34.25;;;;;;;;5092213;27;45529;-91
2022/03/01 06:10:31;;;;;;;;;40.00;35.75;;;;;;;;5094432;27;45599;-91
2022/03/01 06:12:56;;;;;;;;;42.00;36.75;;;;;;;;5092323;27;46238;-89
2022/03/01 06:15:22;;;;;;;;;41.75;35.50;;;;;;;;5090278;27;45480;-90
2022/03/01 06:17:47;;;;;;;;;43.00;37.75;;;;;;;;5093031;27;45335;-90
2022/03/01 06:20:13;;;;;;;;;43.50;36.50;;;;;;;;5096162;27;46403;-90
2022/03/01 06:22:39;;;;;;;;;36.75;34.00;;;;;;;;5096899;27;45546;-89
2022/03/01 06:25:05;;;;;;;;;40.75;36.00;;;;;;;;5098856;27;45316;-89
2022/03/01 06:27:30;;;;;;;;;44.50;37.00;;;;;;;;5096045;27;45383;-89
2022/03/01 06:29:55;;;;;;;;;40.50;34.00;;;;;;;;5093445;27;46372;-89
2022/03/01 06:32:21;;;;;;;;;42.50;33.75;;;;;;;;5096216;27;45592;-89
2022/03/01 06:34:46;;;;;;;;;45.00;37.00;;;;;;;;5096094;27;45474;-89
2022/03/01 06:37:14;;;;;;;;;38.25;32.50;;;;;;;;5097123;27;45381;-90
2022/03/01 06:39:41;;;;;;;;;40.25;35.00;;;;;;;;5094884;27;48112;-90
2022/03/01 06:42:06;;;;;;;;;41.75;35.75;;;;;;;;5094693;27;45832;-91
2022/03/01 06:44:31;;;;;;;;;36.25;34.00;;;;;;;;5096140;27;45503;-90
2022/03/01 06:46:57;;;;;;;;;39.00;33.25;;;;;;;;5096615;27;45466;-90
2022/03/01 06:49:22;;;;;;;;;37.00;33.75;;;;;;;;5096992;27;47193;-90
2022/03/01 06:51:47;;;;;;;;;41.50;34.25;;;;;;;;5096048;27;45460;-90
2022/03/01 06:54:13;;;;;;;;;34.75;34.25;;;;;;;;5096224;27;45787;-89
2022/03/01 06:56:38;;;;;;;;;42.75;35.25;;;;;;;;5094355;27;45419;-89
2022/03/01 06:59:03;;;;;;;;;43.50;35.50;;;;;;;;5093622;27;48132;-90
2022/03/01 07:01:28;;;;;;;;;35.75;33.25;;;;;;;;5095564;27;45433;-89
2022/03/01 07:03:53;;;;;;;;;42.75;35.75;;;;;;;;5096243;27;45485;-90
2022/03/01 07:06:19;;;;;;;;;39.00;34.00;;;;;;;;5094653;27;45586;-90
2022/03/01 07:08:44;;;;;;;;;33.00;30.75;;;;;;;;5093440;27;45491;-89
2022/03/01 07:11:09;;;;;;;;;40.00;36.00;;;;;;;;5093777;27;45314;-90
2022/03/01 07:13:34;;;;;;;;;42.00;35.75;;;;;;;;5095974;27;45625;-90
2022/03/01 07:16:00;;;;;;;;;40.00;34.50;;;;;;;;5096563;27;45568;-89
2022/03/01 07:18:25;;;;;;;;;39.00;34.00;;;;;;;;5093986;27;48171;-89
2022/03/01 07:20:50;;;;;;;;;47.50;36.00;;;;;;;;5095393;27;45365;-90
2022/03/01 07:23:15;;;;;;;;;38.25;32.75;;;;;;;;5093754;27;45412;-88
2022/03/01 07:25:41;;;;;;;;;47.00;34.50;;;;;;;;5095791;27;45326;-90
2022/03/01 07:28:06;;;;;;;;;41.75;35.75;;;;;;;;5091007;27;46028;-91
2022/03/01 07:30:32;;;;;;;;;58.00;44.75;;;;;;;;5094044;27;45597;-90
2022/03/01 07:32:58;;;;;;;;;49.00;41.00;;;;;;;;5094542;27;45631;-89
2022/03/01 07:35:23;;;;;;;;;34.25;30.25;;;;;;;;5095282;27;46511;-91
2022/03/01 07:37:49;;;;;;;;;52.00;39.75;;;;;;;;5093192;27;48148;-90
2022/03/01 07:40:16;;;;;;;;;43.75;37.00;;;;;;;;5097278;27;45417;-91
2022/03/01 07:42:42;;;;;;;;;44.25;37.00;;;;;;;;5094496;27;45496;-90
2022/03/01 07:45:07;;;;;;;;;38.50;36.00;;;;;;;;5095321;27;45511;-90
2022/03/01 07:47:33;;;;;;;;;44.75;39.00;;;;;;;;5096056;27;46309;-91
2022/03/01 07:49:58;;;;;;;;;42.00;36.00;;;;;;;;5093300;27;45387;-90
2022/03/01 07:52:23;;;;;;;;;47.00;40.00;;;;;;;;5097073;27;45345;-90
2022/03/01 07:54:49;;;;;;;;;49.50;40.75;;;;;;;;5092011;27;45398;-91
2022/03/01 07:57:15;;;;;;;;;47.00;37.00;;;;;;;;5093185;27;47623;-88
2022/03/01 07:59:40;;;;;;;;;42.00;36.50;;;;;;;;5093715;27;45466;-89
2022/03/01 08:02:06;;;;;;;;;34.50;32.25;;;;;;;;5094406;27;45428;-90
2022/03/01 08:04:31;;;;;;;;;46.50;40.25;;;;;;;;5096788;27;45517;-90
2022/03/01 08:06:56;;;;;;;;;42.50;35.75;;;;;;;;5095158;27;48600;-90
2022/03/01 08:09:22;;;;;;;;;51.25;41.50;;;;;;;;5093150;27;45435;-91
2022/03/01 08:11:47;;;;;;;;;53.50;41.50;;;;;;;;5093869;27;45378;-90
2022/03/01 08:14:12;;;;;;;;;48.00;40.00;;;;;;;;5089227;27;45381;-91
2022/03/01 08:16:37;;;;;;;;;45.25;38.50;;;;;;;;5094753;27;46958;-91
2022/03/01 08:19:02;;;;;;;;;45.50;37.50;;;;;;;;5093931;27;45403;-91
2022/03/01 08:21:28;;;;;;;;;52.75;42.00;;;;;;;;5094803;27;45452;-91
2022/03/01 08:23:53;;;;;;;;;49.00;39.00;;;;;;;;5092981;27;45434;-91
2022/03/01 08:26:18;;;;;;;;;56.50;43.50;;;;;;;;5093878;27;45444;-91
2022/03/01 08:28:45;;;;;;;;;45.75;40.25;;;;;;;;5092636;27;45569;-91
2022/03/01 08:31:10;;;;;;;;;49.75;39.25;;;;;;;;5091636;27;45517;-91
2022/03/01 08:33:35;;;;;;;;;48.50;38.25;;;;;;;;5089518;27;45505;-92
2022/03/01 08:36:01;;;;;;;;;41.50;36.50;;;;;;;;5092666;27;46298;-91
2022/03/01 08:38:26;;;;;;;;;42.50;35.75;;;;;;;;5091599;27;45410;-92
2022/03/01 08:40:52;;;;;;;;;48.75;39.00;;;;;;;;5094381;27;45950;-91
2022/03/01 08:43:17;;;;;;;;;37.75;34.25;;;;;;;;5095873;27;45506;-91
2022/03/01 08:45:43;;;;;;;;;42.25;35.50;;;;;;;;5094522;27;45672;-92
2022/03/01 08:48:08;;;;;;;;;42.50;37.75;;;;;;;;5090965;27;45412;-92
2022/03/01 08:50:34;;;;;;;;;40.25;36.25;;;;;;;;5090181;27;45427;-91
2022/03/01 08:53:00;;;;;;;;;43.00;36.50;;;;;;;;5093188;27;45470;-92
2022/03/01 08:55:25;;;;;;;;;44.75;37.00;;;;;;;;5095401;27;45589;-91
2022/03/01 08:57:51;;;;;;;;;45.50;36.50;;;;;;;;5095849;27;45531;-91
2022/03/01 09:00:16;;;;;;;;;49.75;40.50;;;;;;;;5091905;27;45562;-92
2022/03/01 09:02:41;;;;;;;;;45.50;38.50;;;;;;;;5102826;27;45475;-91
2022/03/01 09:05:07;;;;;;;;;54.75;42.00;;;;;;;;5093347;27;48351;-91
2022/03/01 09:07:33;;;;;;;;;55.50;39.00;;;;;;;;5093906;27;45564;-91
2022/03/01 09:09:58;;;;;;;;;49.00;39.25;;;;;;;;5094034;27;45453;-92
2022/03/01 09:12:23;;;;;;;;;38.00;33.50;;;;;;;;5091552;27;45623;-92
2022/03/01 09:14:48;;;;;;;;;44.00;38.75;;;;;;;;5092476;27;47060;-92
2022/03/01 09:17:14;;;;;;;;;49.75;39.00;;;;;;;;5091586;27;45605;-92
2022/03/01 09:19:39;;;;;;;;;56.50;42.75;;;;;;;;5092442;27;45525;-91
2022/03/01 09:22:04;;;;;;;;;50.25;41.50;;;;;;;;5094897;27;45554;-92
2022/03/01 09:24:29;;;;;;;;;49.75;39.50;;;;;;;;5092580;27;48135;-92
2022/03/01 09:26:57;;;;;;;;;47.25;39.50;;;;;;;;5093926;27;45293;-92
2022/03/01 09:29:22;;;;;;;;;41.00;36.75;;;;;;;;5094494;27;45364;-91
2022/03/01 09:31:47;;;;;;;;;48.50;38.75;;;;;;;;5093337;27;45529;-90
2022/03/01 09:34:13;;;;;;;;;49.50;39.50;;;;;;;;5095460;27;46477;-93
2022/03/01 09:36:38;;;;;;;;;47.50;39.25;;;;;;;;5094422;27;46026;-91
2022/03/01 09:39:03;;;;;;;;;44.50;37.50;;;;;;;;5100031;27;45469;-91
2022/03/01 09:41:29;;;;;;;;;50.50;41.50;;;;;;;;5092746;27;45646;-91
2022/03/01 09:43:58;;;;;;;;;45.25;37.75;;;;;;;;5094711;27;45445;-91
2022/03/01 09:46:23;;;;;;;;;48.25;40.00;;;;;;;;5116895;27;45488;-92
2022/03/01 09:48:49;;;;;;;;;42.00;36.25;;;;;;;;5099174;27;45301;-91
2022/03/01 09:51:14;;;;;;;;;44.25;37.50;;;;;;;;5102990;27;45362;-91
2022/03/01 09:53:40;;;;;;;;;46.00;37.75;;;;;;;;5090736;27;45972;-92
2022/03/01 09:56:07;;;;;;;;;50.00;40.25;;;;;;;;5110170;27;45627;-91
2022/03/01 09:58:33;;;;;;;;;50.25;39.00;;;;;;;;5101951;27;45290;-91
2022/03/01 10:00:58;;;;;;;;;46.00;36.00;;;;;;;;5101418;27;45418;-91
2022/03/01 10:03:23;;;;;;;;;46.50;35.75;;;;;;;;5090870;27;47595;-92
2022/03/01 10:05:49;;;;;;;;;40.75;34.50;;;;;;;;5099979;27;45424;-92
2022/03/01 10:08:20;;;;;;;;;39.50;31.00;;;;;;;;5087790;27;45452;-92
2022/03/01 10:10:50;;;;;;;;;43.50;37.25;;;;;;;;5096959;27;45406;-91
2022/03/01 10:13:21;;;;;;;;;45.50;35.25;;;;;;;;5092897;27;47731;-90
2022/03/01 10:15:49;;;;;;;;;48.25;36.50;;;;;;;;5099669;27;45305;-90
2022/03/01 10:18:15;;;;;;;;;48.75;38.00;;;;;;;;5096288;27;45454;-92
2022/03/01 10:20:44;;;;;;;;;44.75;36.25;;;;;;;;5098598;27;45476;-91
2022/03/01 10:23:10;;;;;;;;;44.25;38.00;;;;;;;;5095288;27;48363;-93
2022/03/01 10:25:35;;;;;;;;;38.75;35.00;;;;;;;;5100423;27;45909;-92
2022/03/01 10:28:01;;;;;;;;;39.75;34.25;;;;;;;;5097088;27;45523;-92
2022/03/01 10:30:26;;;;;;;;;43.25;37.00;;;;;;;;5095242;27;45607;-92
2022/03/01 10:33:01;;;;;;;;;47.00;36.25;;;;;;;;5094920;27;46360;-92
2022/03/01 10:35:26;;;;;;;;;41.00;35.25;;;;;;;;5096559;27;45448;-92
2022/03/01 10:37:52;;;;;;;;;40.50;34.00;;;;;;;;5099184;27;45304;-90
2022/03/01 10:40:19;;;;;;;;;40.00;34.00;;;;;;;;5100225;27;45242;-91
2022/03/01 10:42:45;;;;;;;;;35.00;32.75;;;;;;;;5095491;27;47193;-92
2022/03/01 10:45:12;;;;;;;;;36.25;31.75;;;;;;;;5099956;27;45392;-92
2022/03/01 10:47:38;;;;;;;;;38.50;32.00;;;;;;;;5099962;27;45417;-91
2022/03/01 10:50:10;;;;;;;;;37.00;31.00;;;;;;;;5110340;27;45324;-91
2022/03/01 10:52:37;;;;;;;;;30.75;30.50;;;;;;;;5094227;27;47427;-92
2022/03/01 10:55:03;;;;;;;;;43.00;35.25;;;;;;;;5082065;27;45606;-94
2022/03/01 10:57:28;;;;;;;;;34.00;30.75;;;;;;;;5098025;27;45348;-91
2022/03/01 10:59:53;;;;;;;;;34.75;30.50;;;;;;;;5095063;27;45437;-89
2022/03/01 11:02:19;;;;;;;;;36.00;33.00;;;;;;;;5100430;27;47246;-92
2022/03/01 11:04:48;;;;;;;;;33.00;30.75;;;;;;;;5095250;27;46024;-90
2022/03/01 11:07:14;;;;;;;;;34.25;32.25;;;;;;;;5096112;27;45489;-91
2022/03/01 11:09:40;;;;;;;;;27.75;27.50;;;;;;;;5094691;27;45492;-93
2022/03/01 11:12:06;;;;;;;;;33.50;31.75;;;;;;;;5097200;27;47612;-93
2022/03/01 11:14:38;;;;;;;;;32.75;30.00;;;;;;;;5100088;27;45743;-94
2022/03/01 11:17:12;;;;;;;;;33.75;29.25;;;;;;;;5110252;27;45361;-93
2022/03/01 11:19:52;;;;;;;;;23.50;23.25;;;;;;;;5108626;27;45575;-92
2022/03/01 11:22:23;;;;;;;;;34.75;30.25;;;;;;;;5105596;27;45513;-94
2022/03/01 11:24:49;;;;;;;;;35.75;32.50;;;;;;;;5097328;27;45322;-95
2022/03/01 11:27:18;;;;;;;;;29.75;27.75;;;;;;;;5100511;27;45425;-93
2022/03/01 11:29:43;;;;;;;;;34.25;30.75;;;;;;;;5098142;27;45493;-89
2022/03/01 11:32:13;;;;;;;;;35.75;30.25;;;;;;;;5098542;27;45770;-90
2022/03/01 11:34:39;;;;;;;;;30.75;28.75;;;;;;;;5096831;27;45761;-90
2022/03/01 11:37:04;;;;;;;;;33.50;30.00;;;;;;;;5096733;27;45558;-88
2022/03/01 11:39:31;;;;;;;;;30.75;28.75;;;;;;;;5093277;27;45530;-90
2022/03/01 11:42:04;;;;;;;;;29.00;28.75;;;;;;;;5095825;27;47356;-88
2022/03/01 11:44:32;;;;;;;;;34.50;30.25;;;;;;;;5097481;27;45455;-88
2022/03/01 11:46:58;;;;;;;;;32.50;30.25;;;;;;;;5111834;27;45694;-88
2022/03/01 11:49:23;;;;;;;;;31.75;30.00;;;;;;;;5103507;27;45648;-88
2022/03/01 11:51:55;;;;;;;;;30.25;28.00;;;;;;;;5103528;27;45844;-89
2022/03/01 11:54:28;;;;;;;;;33.25;28.75;;;;;;;;5093688;27;45289;-89
2022/03/01 11:56:54;;;;;;;;;33.00;30.50;;;;;;;;5095482;27;45448;-89
2022/03/01 11:59:20;;;;;;;;;28.00;26.75;;;;;;;;5092973;27;45519;-89
2022/03/01 12:01:46;;;;;;;;;31.00;30.50;;;;;;;;5096226;27;48427;-87
2022/03/01 12:04:11;;;;;;;;;29.25;26.50;;;;;;;;5096949;27;45935;-88
2022/03/01 12:06:38;;;;;;;;;35.00;31.00;;;;;;;;5096206;27;45432;-88
2022/03/01 12:09:04;;;;;;;;;32.75;30.75;;;;;;;;5097776;27;46008;-86
2022/03/01 12:11:34;;;;;;;;;31.50;29.00;;;;;;;;5101415;27;46472;-86
2022/03/01 12:14:03;;;;;;;;;34.00;31.25;;;;;;;;5097062;27;45350;-89
2022/03/01 12:16:29;;;;;;;;;26.75;26.25;;;;;;;;5096852;27;45615;-88
2022/03/01 12:19:26;;;;;;;;;25.50;24.25;;;;;;;;5097384;27;45530;-91
2022/03/01 12:21:55;;;;;;;;;28.50;27.50;;;;;;;;5018309;28;48350;-89
2022/03/01 12:24:21;;;;;;;;;27.75;26.00;;;;;;;;5010238;28;46400;-88
2022/03/01 12:26:50;;;;;;;;;29.50;28.25;;;;;;;;5010670;28;45501;-89
2022/03/01 12:29:17;;;;;;;;;31.75;28.00;;;;;;;;5013500;28;45592;-88
2022/03/01 12:31:42;;;;;;;;;27.75;26.00;;;;;;;;5024261;28;45555;-89
2022/03/01 12:34:09;;;;;;;;;29.00;26.00;;;;;;;;5031804;28;45502;-89
2022/03/01 12:36:41;;;;;;;;;30.50;28.75;;;;;;;;5031766;28;45529;-89
2022/03/01 12:39:10;;;;;;;;;29.00;26.00;;;;;;;;5014279;28;45680;-89
2022/03/01 12:41:36;;;;;;;;;32.75;30.00;;;;;;;;5031046;28;46272;-89
2022/03/01 12:44:03;;;;;;;;;32.00;28.00;;;;;;;;5014934;28;45858;-88
2022/03/01 12:46:29;;;;;;;;;31.75;26.50;;;;;;;;5015227;28;45499;-88
2022/03/01 12:48:55;;;;;;;;;24.00;24.00;;;;;;;;5015353;28;45668;-88
2022/03/01 12:51:22;;;;;;;;;30.00;25.75;;;;;;;;5031801;28;46194;-88
2022/03/01 12:53:55;;;;;;;;;30.75;27.50;;;;;;;;5015192;28;45820;-88
2022/03/01 12:56:22;;;;;;;;;26.75;22.75;;;;;;;;5018434;27;45519;-88
2022/03/01 12:58:48;;;;;;;;;24.00;23.75;;;;;;;;5109990;27;45496;-89
2022/03/01 13:01:13;;;;;;;;;22.25;21.75;;;;;;;;5094545;27;47399;-90
2022/03/01 13:03:38;;;;;;;;;23.00;22.00;;;;;;;;5095548;27;45569;-90
2022/03/01 13:06:08;;;;;;;;;25.25;22.00;;;;;;;;5095798;27;45549;-90
2022/03/01 13:08:38;;;;;;;;;28.75;24.25;;;;;;;;5099978;27;45487;-90
2022/03/01 13:11:10;;;;;;;;;21.25;19.75;;;;;;;;5093000;27;45684;-88
2022/03/01 13:13:59;;;;;;;;;22.50;21.75;;;;;;;;5100916;27;48230;-88
2022/03/01 13:16:33;;;;;;;;;26.75;26.00;;;;;;;;5088667;27;45506;-88
2022/03/01 13:18:59;;;;;;;;;17.75;17.75;;;;;;;;5097192;27;45507;-88
2022/03/01 13:21:26;;;;;;;;;24.50;24.25;;;;;;;;5096904;27;45517;-89
2022/03/01 13:23:52;;;;;;;;;26.75;26.75;;;;;;;;5097823;27;45418;-89
2022/03/01 13:26:17;;;;;;;;;24.75;19.00;;;;;;;;5092881;27;46307;-89
2022/03/01 13:28:42;;;;;;;;;23.50;23.00;;;;;;;;5112175;27;45690;-88
2022/03/01 13:31:18;;;;;;;;;23.00;21.75;;;;;;;;5101198;27;46329;-88
2022/03/01 13:33:44;;;;;;;;;21.25;18.50;;;;;;;;5093763;27;46999;-89
2022/03/01 13:36:11;;;;;;;;;23.00;22.00;;;;;;;;5102030;27;45547;-88
2022/03/01 13:38:36;;;;;;;;;21.50;19.50;;;;;;;;5095229;27;45739;-87
2022/03/01 13:41:02;;;;;;;;;20.50;19.25;;;;;;;;5094961;27;45912;-88
2022/03/01 13:43:27;;;;;;;;;28.25;21.25;;;;;;;;5098479;27;45327;-87
2022/03/01 13:45:57;;;;;;;;;26.50;21.50;;;;;;;;5100573;27;45532;-87
2022/03/01 13:48:23;;;;;;;;;24.75;23.50;;;;;;;;5097887;27;45451;-89
2022/03/01 13:50:48;;;;;;;;;22.00;19.00;;;;;;;;5097369;27;49650;-89
2022/03/01 13:53:15;;;;;;;;;20.00;18.25;;;;;;;;5095234;27;45504;-88
2022/03/01 13:55:41;;;;;;;;;20.00;18.50;;;;;;;;5094662;27;45499;-88
2022/03/01 13:58:08;;;;;;;;;21.00;18.25;;;;;;;;5098504;27;45487;-88
2022/03/01 14:00:36;;;;;;;;;20.75;17.00;;;;;;;;5096243;27;45567;-88
2022/03/01 14:03:02;;;;;;;;;18.75;17.00;;;;;;;;5095170;27;45467;-88
2022/03/01 14:05:28;;;;;;;;;15.50;15.50;;;;;;;;5096845;27;45486;-88
2022/03/01 14:08:00;;;;;;;;;18.25;16.00;;;;;;;;5092299;27;45773;-88
2022/03/01 14:10:27;;;;;;;;;16.00;16.00;;;;;;;;5098334;27;45560;-88
2022/03/01 14:13:03;;;;;;;;;18.00;16.50;;;;;;;;5105483;27;45806;-88